Time;durP1;ratioP1;P1;durP2;ratioP2;P2;SDS_P1;SDS_P2;PMS_P1;PMS_P2;Temp;Humidity;BMP_temperature;BMP_pressure;BME280_temperature;BME280_humidity;BME280_pressure;Samples;Min_cycle;Max_cycle;Signal;HPM_P1;HPM_P2
2023/12/23 00:01:17;;;;;;;4.38;1.08;;;;;;;9.35;71.91;100996.88;6137623;23;20061;-72
2023/12/23 00:03:45;;;;;;;4.40;1.73;;;;;;;9.36;71.80;100991.28;6138702;23;20494;-73
2023/12/23 00:06:13;;;;;;;2.72;1.10;;;;;;;9.39;72.07;100982.00;6138860;23;20025;-72
2023/12/23 00:08:42;;;;;;;4.05;0.88;;;;;;;9.41;71.93;100988.78;6137855;23;20077;-72
2023/12/23 00:11:10;;;;;;;3.10;0.95;;;;;;;9.41;71.98;100987.97;6137375;23;20025;-72
2023/12/23 00:13:37;;;;;;;4.38;1.13;;;;;;;9.42;71.73;100992.31;6138456;23;20026;-72
2023/12/23 00:16:06;;;;;;;6.35;1.40;;;;;;;9.42;72.22;101000.34;6138760;23;20026;-72
2023/12/23 00:18:33;;;;;;;5.78;1.70;;;;;;;9.42;72.28;100986.94;6138311;23;20025;-72
2023/12/23 00:21:02;;;;;;;5.82;1.40;;;;;;;9.42;72.16;100981.56;6137729;23;20026;-72
2023/12/23 00:23:30;;;;;;;2.78;1.10;;;;;;;9.45;71.95;100978.47;6137971;23;20033;-72
2023/12/23 00:25:59;;;;;;;2.78;1.30;;;;;;;9.48;71.73;100970.00;6135932;23;20026;-73
2023/12/23 00:28:27;;;;;;;9.50;1.35;;;;;;;9.50;72.03;100975.16;6136887;23;20125;-72
2023/12/23 00:30:54;;;;;;;5.75;1.55;;;;;;;9.50;71.98;100973.28;6136509;23;20030;-72
2023/12/23 00:33:22;;;;;;;6.40;1.42;;;;;;;9.49;72.44;100974.31;6138667;23;20028;-72
2023/12/23 00:35:50;;;;;;;6.97;1.30;;;;;;;9.51;71.98;100977.63;6138354;23;20030;-72
2023/12/23 00:38:18;;;;;;;8.55;1.63;;;;;;;9.48;72.61;100964.63;6138816;23;20196;-72
2023/12/23 00:40:46;;;;;;;7.28;1.50;;;;;;;9.50;73.03;100964.44;6136685;23;20033;-72
2023/12/23 00:43:15;;;;;;;10.35;1.92;;;;;;;9.50;72.90;100964.44;6138771;23;20120;-72
2023/12/23 00:45:43;;;;;;;9.63;1.80;;;;;;;9.48;73.04;100961.94;6137650;23;20408;-72
2023/12/23 00:48:11;;;;;;;12.70;2.60;;;;;;;9.49;73.48;100957.41;6138081;23;20028;-72
2023/12/23 00:50:39;;;;;;;7.78;2.15;;;;;;;9.46;73.65;100954.13;6137488;23;20030;-73
2023/12/23 00:53:07;;;;;;;9.93;2.67;;;;;;;9.48;73.68;100950.41;6137128;23;20049;-72
2023/12/23 00:55:35;;;;;;;11.07;2.97;;;;;;;9.46;73.60;100959.47;6136231;23;20053;-73
2023/12/23 00:58:03;;;;;;;8.93;1.85;;;;;;;9.46;74.15;100956.78;6136991;23;20032;-73
2023/12/23 01:00:32;;;;;;;12.15;3.05;;;;;;;9.47;73.90;100938.84;6135759;23;20412;-72
2023/12/23 01:03:00;;;;;;;11.88;2.72;;;;;;;9.49;74.08;100944.00;6136772;23;20026;-73
2023/12/23 01:05:27;;;;;;;12.50;3.03;;;;;;;9.51;73.78;100937.38;6138062;23;20025;-72
2023/12/23 01:07:55;;;;;;;8.73;2.00;;;;;;;9.52;74.11;100946.25;6138546;23;20030;-72
2023/12/23 01:10:25;;;;;;;13.65;2.30;;;;;;;9.54;73.69;100949.53;6136728;23;20025;-72
2023/12/23 01:12:52;;;;;;;12.55;2.33;;;;;;;9.54;73.73;100945.00;6138357;23;20078;-72
2023/12/23 01:15:19;;;;;;;9.55;2.85;;;;;;;9.55;73.87;100943.16;6137178;23;20054;-72
2023/12/23 01:17:48;;;;;;;9.18;2.90;;;;;;;9.54;73.51;100949.53;6138455;23;20025;-72
2023/12/23 01:20:17;;;;;;;14.85;3.38;;;;;;;9.55;73.78;100948.50;6137617;23;20048;-72
2023/12/23 01:22:45;;;;;;;10.02;2.35;;;;;;;9.58;73.66;100932.00;6136500;23;20042;-72
2023/12/23 01:25:13;;;;;;;16.65;2.90;;;;;;;9.56;73.83;100932.19;6136446;23;20026;-72
2023/12/23 01:27:40;;;;;;;9.23;2.22;;;;;;;9.57;73.45;100930.34;6137065;23;20026;-72
2023/12/23 01:30:09;;;;;;;7.03;3.15;;;;;;;9.58;73.56;100927.44;6135825;23;20066;-71
2023/12/23 01:32:37;;;;;;;11.75;2.03;;;;;;;9.58;73.94;100922.09;6138338;23;20029;-72
2023/12/23 01:35:07;;;;;;;12.02;2.78;;;;;;;9.58;73.84;100921.25;6137917;23;20026;-72
2023/12/23 01:37:35;;;;;;;7.70;1.60;;;;;;;9.58;73.87;100913.22;6138322;23;20056;-72
2023/12/23 01:40:03;;;;;;;11.40;2.55;;;;;;;9.58;73.89;100922.09;6136862;23;20034;-71
2023/12/23 01:42:31;;;;;;;8.35;1.85;;;;;;;9.58;73.87;100927.44;6137718;23;20026;-72
2023/12/23 01:44:59;;;;;;;8.02;1.88;;;;;;;9.55;74.15;100913.63;6137624;23;20029;-72
2023/12/23 01:47:27;;;;;;;14.25;2.10;;;;;;;9.58;74.38;100913.22;6138454;23;20026;-72
2023/12/23 01:49:56;;;;;;;10.90;2.17;;;;;;;9.60;74.30;100911.13;6137850;23;20045;-72
2023/12/23 01:52:25;;;;;;;15.68;2.50;;;;;;;9.61;74.45;100918.16;6136836;23;20022;-72
2023/12/23 01:54:53;;;;;;;13.27;2.42;;;;;;;9.60;74.47;100906.59;6135244;23;20021;-71
2023/12/23 01:57:21;;;;;;;10.43;2.65;;;;;;;9.62;74.58;100911.75;6136410;23;20030;-72
2023/12/23 01:59:50;;;;;;;10.65;2.08;;;;;;;9.63;74.32;100919.59;6137487;23;20093;-72
2023/12/23 02:02:18;;;;;;;13.07;2.50;;;;;;;9.64;74.24;100913.19;6139265;23;20102;-72
2023/12/23 02:04:46;;;;;;;7.70;1.80;;;;;;;9.61;74.43;100910.09;6139358;23;20032;-71
2023/12/23 02:07:14;;;;;;;12.27;3.30;;;;;;;9.63;74.91;100905.34;6140063;23;20026;-72
2023/12/23 02:09:43;;;;;;;8.32;2.00;;;;;;;9.59;75.26;100910.31;6138853;23;20312;-71
2023/12/23 02:12:20;;;;;;;10.32;1.92;;;;;;;9.60;74.84;100901.22;6139341;23;20030;-72
2023/12/23 02:14:56;;;;;;;9.23;2.30;;;;;;;9.61;75.14;100900.19;6139866;23;20026;-72
2023/12/23 02:17:24;;;;;;;7.63;2.67;;;;;;;9.60;75.61;100892.34;6140273;23;20026;-72
2023/12/23 02:19:52;;;;;;;14.02;2.17;;;;;;;9.58;75.58;100887.19;6138859;23;20164;-72
2023/12/23 02:22:21;;;;;;;12.57;2.35;;;;;;;9.59;75.36;100888.03;6138860;23;20046;-72
2023/12/23 02:24:49;;;;;;;11.50;2.60;;;;;;;9.60;75.44;100895.03;6138052;23;20026;-71
2023/12/23 02:27:21;;;;;;;8.85;2.13;;;;;;;9.62;75.58;100895.66;6137713;23;20105;-73
2023/12/23 02:29:49;;;;;;;13.23;2.50;;;;;;;9.62;75.47;100891.09;6138312;23;20088;-72
2023/12/23 02:32:18;;;;;;;11.82;2.10;;;;;;;9.64;75.24;100901.63;6138423;23;20526;-72
2023/12/23 02:34:47;;;;;;;9.70;2.42;;;;;;;9.63;75.30;100883.88;6139748;23;20053;-72
2023/12/23 02:37:15;;;;;;;11.43;2.63;;;;;;;9.61;75.55;100892.13;6140137;23;20026;-72
2023/12/23 02:39:44;;;;;;;11.43;2.65;;;;;;;9.59;75.86;100894.22;6138668;23;20034;-71
2023/12/23 02:42:11;;;;;;;13.80;2.47;;;;;;;9.60;75.39;100887.81;6138662;23;20128;-72
2023/12/23 02:44:39;;;;;;;13.70;2.47;;;;;;;9.60;75.62;100889.66;6139492;23;20022;-72
2023/12/23 02:47:07;;;;;;;11.48;2.40;;;;;;;9.62;75.70;100890.28;6139608;23;20084;-72
2023/12/23 02:49:35;;;;;;;18.25;2.55;;;;;;;9.60;75.38;100874.38;6138540;23;20030;-73
2023/12/23 02:52:03;;;;;;;11.65;2.17;;;;;;;9.56;75.04;100862.44;6139001;23;20056;-73
2023/12/23 02:54:31;;;;;;;11.70;2.25;;;;;;;9.63;74.95;100862.41;6137473;23;20084;-71
2023/12/23 02:57:00;;;;;;;10.60;2.47;;;;;;;9.63;74.86;100857.03;6137045;23;20084;-73
2023/12/23 02:59:28;;;;;;;9.40;1.98;;;;;;;9.63;74.83;100863.22;6137632;23;20025;-73
2023/12/23 03:01:55;;;;;;;10.35;2.20;;;;;;;9.62;74.70;100864.28;6138640;23;20026;-73
2023/12/23 03:04:23;;;;;;;13.40;3.38;;;;;;;9.62;74.54;100845.47;6139014;23;20022;-72
2023/12/23 03:06:51;;;;;;;11.85;2.55;;;;;;;9.64;74.36;100851.47;6139300;23;20025;-72
2023/12/23 03:09:19;;;;;;;9.50;2.35;;;;;;;9.64;74.33;100854.16;6138754;23;20025;-72
2023/12/23 03:11:47;;;;;;;10.43;2.33;;;;;;;9.65;74.03;100849.59;6139207;23;20032;-72
2023/12/23 03:14:16;;;;;;;12.73;2.17;;;;;;;9.64;74.05;100840.72;6138960;23;20456;-72
2023/12/23 03:16:44;;;;;;;9.27;1.95;;;;;;;9.64;74.02;100832.69;6139475;23;20105;-72
2023/12/23 03:19:12;;;;;;;13.70;2.45;;;;;;;9.64;73.88;100847.94;6138339;23;20029;-72
2023/12/23 03:21:43;;;;;;;7.88;2.72;;;;;;;9.64;73.79;100838.03;6138771;23;20074;-71
2023/12/23 03:24:11;;;;;;;11.52;1.88;;;;;;;9.66;73.94;100854.75;6137663;23;20021;-71
2023/12/23 03:26:38;;;;;;;11.98;1.90;;;;;;;9.66;73.85;100854.75;6136315;23;20057;-72
2023/12/23 03:29:06;;;;;;;10.38;2.53;;;;;;;9.63;73.80;100841.75;6137001;23;20396;-71
2023/12/23 03:31:35;;;;;;;9.68;2.55;;;;;;;9.68;73.43;100836.56;6137356;23;20475;-71
2023/12/23 03:34:03;;;;;;;11.05;2.55;;;;;;;9.64;73.37;100842.59;6139531;23;20105;-72
2023/12/23 03:36:31;;;;;;;7.75;2.85;;;;;;;9.68;73.34;100844.63;6139271;23;20026;-72
2023/12/23 03:38:59;;;;;;;10.75;2.15;;;;;;;9.70;73.02;100850.59;6138381;23;20025;-70
2023/12/23 03:41:26;;;;;;;7.80;2.05;;;;;;;9.70;72.98;100850.59;6137937;23;20440;-71
2023/12/23 03:43:54;;;;;;;8.00;2.30;;;;;;;9.71;73.05;100829.94;6138646;23;20022;-72
2023/12/23 03:46:22;;;;;;;11.77;2.28;;;;;;;9.70;73.16;100837.19;6138628;23;20026;-72
2023/12/23 03:48:51;;;;;;;11.43;2.65;;;;;;;9.71;73.10;100838.81;6138758;23;20085;-72
2023/12/23 03:51:21;;;;;;;12.68;2.08;;;;;;;9.69;72.93;100837.41;6138277;23;20352;-72
2023/12/23 03:53:49;;;;;;;6.68;1.88;;;;;;;9.68;72.91;100833.88;6137300;23;20022;-72
2023/12/23 03:56:16;;;;;;;7.85;2.42;;;;;;;9.68;72.96;100850.00;6136191;23;20022;-72
2023/12/23 03:58:44;;;;;;;7.70;2.22;;;;;;;9.68;72.88;100838.44;6136520;23;20153;-72
2023/12/23 04:01:15;;;;;;;17.77;2.83;;;;;;;9.62;72.93;100824.03;6136561;23;20022;-72
2023/12/23 04:03:43;;;;;;;14.13;3.25;;;;;;;9.67;72.82;100848.34;6137337;23;20078;-72
2023/12/23 04:06:13;;;;;;;8.93;2.47;;;;;;;9.65;72.98;100839.69;6138675;23;20026;-72
2023/12/23 04:08:41;;;;;;;11.40;2.30;;;;;;;9.66;72.61;100829.78;6135887;23;20379;-72
2023/12/23 04:11:09;;;;;;;12.20;2.40;;;;;;;9.68;72.78;100835.75;6137395;23;20026;-72
2023/12/23 04:13:38;;;;;;;9.00;2.20;;;;;;;9.70;72.55;100839.88;6138047;23;20022;-72
2023/12/23 04:16:06;;;;;;;10.60;3.22;;;;;;;9.70;72.35;100829.13;6138318;23;20049;-72
2023/12/23 04:18:34;;;;;;;7.20;2.28;;;;;;;9.71;72.28;100836.13;6138509;23;20530;-72
2023/12/23 04:21:02;;;;;;;10.40;3.30;;;;;;;9.71;72.52;100830.78;6137403;23;20022;-72
2023/12/23 04:23:31;;;;;;;11.23;2.55;;;;;;;9.70;72.21;100831.00;6137440;23;20018;-72
2023/12/23 04:25:59;;;;;;;8.20;1.77;;;;;;;9.71;72.47;100827.25;6136610;23;20022;-72
2023/12/23 04:28:27;;;;;;;10.18;2.47;;;;;;;9.71;72.45;100822.72;6136381;23;20026;-72
2023/12/23 04:30:56;;;;;;;9.30;3.15;;;;;;;9.64;72.36;100807.72;6136251;23;20053;-71
2023/12/23 04:33:25;;;;;;;11.50;3.47;;;;;;;9.71;72.57;100811.16;6136905;23;20097;-71
2023/12/23 04:35:53;;;;;;;7.40;1.88;;;;;;;9.71;72.11;100812.00;6138404;23;20350;-71
2023/12/23 04:38:20;;;;;;;12.05;2.45;;;;;;;9.71;71.98;100803.94;6137758;23;20168;-71
2023/12/23 04:40:50;;;;;;;10.50;1.88;;;;;;;9.74;72.25;100781.22;6137330;23;20045;-71
2023/12/23 04:43:17;;;;;;;9.35;2.15;;;;;;;9.68;72.21;100779.41;6138134;23;20029;-72
2023/12/23 04:45:45;;;;;;;13.82;2.70;;;;;;;9.73;71.95;100788.44;6138202;23;20018;-72
2023/12/23 04:48:13;;;;;;;9.43;2.40;;;;;;;9.72;72.05;100796.72;6137607;23;20054;-71
2023/12/23 04:50:41;;;;;;;11.95;2.67;;;;;;;9.67;72.05;100783.13;6137722;23;20030;-71
2023/12/23 04:53:09;;;;;;;8.82;2.42;;;;;;;9.72;72.17;100767.19;6137744;23;20021;-71
2023/12/23 04:55:36;;;;;;;12.20;2.50;;;;;;;9.74;72.10;100783.91;6136776;23;20096;-71
2023/12/23 04:58:06;;;;;;;13.73;2.88;;;;;;;9.72;72.25;100785.97;6137109;23;20369;-72
2023/12/23 05:00:36;;;;;;;11.18;2.63;;;;;;;9.71;72.17;100782.47;6137076;23;20026;-71
2023/12/23 05:03:04;;;;;;;5.57;1.45;;;;;;;9.72;72.04;100788.66;6138610;23;20061;-72
2023/12/23 05:05:32;;;;;;;11.80;3.42;;;;;;;9.72;72.28;100785.97;6138246;23;20018;-71
2023/12/23 05:08:01;;;;;;;15.98;2.70;;;;;;;9.75;72.01;100781.00;6138579;23;20025;-72
2023/12/23 05:10:29;;;;;;;7.38;2.30;;;;;;;9.74;72.10;100776.66;6137259;23;20030;-72
2023/12/23 05:12:56;;;;;;;9.63;2.78;;;;;;;9.71;71.89;100769.06;6138524;23;20026;-73
2023/12/23 05:15:26;;;;;;;11.98;1.90;;;;;;;9.71;72.08;100785.16;6137351;23;20026;-72
2023/12/23 05:17:53;;;;;;;9.85;2.55;;;;;;;9.70;72.19;100764.72;6138846;23;20026;-72
2023/12/23 05:20:21;;;;;;;8.60;2.10;;;;;;;9.71;72.16;100774.41;6137532;23;20022;-71
2023/12/23 05:22:49;;;;;;;9.30;2.00;;;;;;;9.72;72.16;100775.25;6138176;23;20030;-72
2023/12/23 05:25:18;;;;;;;9.40;1.88;;;;;;;9.72;72.05;100778.75;6136075;23;20082;-72
2023/12/23 05:27:45;;;;;;;10.77;1.92;;;;;;;9.74;72.09;100773.16;6136556;23;20041;-71
2023/12/23 05:30:14;;;;;;;9.73;2.60;;;;;;;9.68;72.23;100765.97;6133759;23;20026;-72
2023/12/23 05:32:44;;;;;;;11.25;2.10;;;;;;;9.71;72.18;100758.31;6135348;23;20053;-71
2023/12/23 05:35:12;;;;;;;16.05;2.63;;;;;;;9.69;72.05;100762.25;6137775;23;20057;-71
2023/12/23 05:37:40;;;;;;;7.78;2.00;;;;;;;9.71;72.05;100770.91;6139200;23;20101;-71
2023/12/23 05:40:09;;;;;;;5.95;2.00;;;;;;;9.70;71.92;100763.91;6137029;23;20097;-70
2023/12/23 05:42:37;;;;;;;7.65;1.98;;;;;;;9.70;72.03;100743.25;6137750;23;20297;-71
2023/12/23 05:45:05;;;;;;;8.10;1.88;;;;;;;9.71;72.06;100746.75;6137951;23;20081;-71
2023/12/23 05:47:33;;;;;;;7.90;2.05;;;;;;;9.72;71.88;100746.53;6138172;23;20626;-72
2023/12/23 05:50:02;;;;;;;8.13;1.98;;;;;;;9.71;71.68;100758.31;6137959;23;20029;-71
2023/12/23 05:52:30;;;;;;;12.85;2.10;;;;;;;9.71;71.85;100747.59;6137509;23;20029;-71
2023/12/23 05:54:58;;;;;;;10.88;2.17;;;;;;;9.77;71.67;100737.84;6136229;23;20017;-70
2023/12/23 05:57:26;;;;;;;9.32;3.13;;;;;;;9.75;71.78;100753.34;6138050;23;20034;-72
2023/12/23 05:59:53;;;;;;;10.18;2.75;;;;;;;9.74;71.52;100749.00;6137210;23;20026;-71
2023/12/23 06:02:21;;;;;;;9.30;2.13;;;;;;;9.74;71.68;100760.56;6136854;23;20030;-71
2023/12/23 06:04:49;;;;;;;12.02;3.97;;;;;;;9.73;71.80;100750.88;6136540;23;20029;-69
2023/12/23 06:07:18;;;;;;;7.38;2.25;;;;;;;9.75;71.58;100764.88;6138142;23;20026;-71
2023/12/23 06:09:46;;;;;;;7.25;2.20;;;;;;;9.74;71.83;100779.34;6137952;23;20129;-72
2023/12/23 06:12:14;;;;;;;9.50;2.75;;;;;;;9.74;71.45;100752.50;6136960;23;20030;-72
2023/12/23 06:14:42;;;;;;;13.70;2.60;;;;;;;9.75;71.82;100750.66;6138107;23;20443;-72
2023/12/23 06:17:10;;;;;;;8.63;2.85;;;;;;;9.74;71.91;100759.75;6137772;23;20080;-72
2023/12/23 06:19:38;;;;;;;9.38;2.30;;;;;;;9.72;71.62;100751.09;6137222;23;20036;-70
2023/12/23 06:22:06;;;;;;;11.15;2.75;;;;;;;9.74;71.49;100760.56;6136880;23;20028;-71
2023/12/23 06:24:35;;;;;;;7.70;2.40;;;;;;;9.74;71.59;100751.69;6135822;23;20103;-71
2023/12/23 06:27:03;;;;;;;11.30;2.38;;;;;;;9.74;71.89;100755.19;6135485;23;20026;-71
2023/12/23 06:29:31;;;;;;;9.70;2.80;;;;;;;9.73;71.83;100742.81;6135562;23;20033;-71
2023/12/23 06:31:59;;;;;;;10.35;2.40;;;;;;;9.75;71.67;100750.66;6135721;23;20029;-71
2023/12/23 06:34:27;;;;;;;11.35;2.25;;;;;;;9.74;71.75;100743.63;6136237;23;20025;-71
2023/12/23 06:36:55;;;;;;;8.95;2.88;;;;;;;9.73;71.71;100723.22;6137665;23;20026;-71
2023/12/23 06:39:24;;;;;;;8.48;3.15;;;;;;;9.73;71.63;100742.81;6137263;23;20337;-71
2023/12/23 06:41:53;;;;;;;11.43;2.55;;;;;;;9.73;71.70;100758.91;6136361;23;20085;-71
2023/12/23 06:44:21;;;;;;;7.15;2.58;;;;;;;9.73;71.74;100753.56;6137391;23;20360;-70
2023/12/23 06:46:51;;;;;;;13.88;2.65;;;;;;;9.75;71.65;100756.03;6137661;23;20029;-71
2023/12/23 06:49:19;;;;;;;7.03;2.50;;;;;;;9.74;71.87;100778.53;6136944;23;20084;-71
2023/12/23 06:51:47;;;;;;;8.77;2.33;;;;;;;9.74;71.96;100768.63;6137318;23;20088;-72
2023/12/23 06:54:15;;;;;;;11.05;2.78;;;;;;;9.74;71.93;100751.69;6134292;23;20108;-70
2023/12/23 06:56:42;;;;;;;8.48;1.95;;;;;;;9.73;71.89;100766.97;6135203;23;20026;-69
2023/12/23 06:59:12;;;;;;;10.20;2.33;;;;;;;9.74;72.19;100749.81;6135868;23;20077;-69
2023/12/23 07:01:40;;;;;;;12.40;2.28;;;;;;;9.70;71.70;100762.03;6135365;23;20085;-70
2023/12/23 07:04:08;;;;;;;19.88;3.13;;;;;;;9.74;72.12;100749.81;6137203;23;20026;-71
2023/12/23 07:06:37;;;;;;;15.02;2.97;;;;;;;9.74;72.02;100759.75;6136603;23;20042;-71
2023/12/23 07:09:05;;;;;;;9.63;2.40;;;;;;;9.74;72.25;100749.00;6137385;23;20032;-71
2023/12/23 07:11:36;;;;;;;12.77;2.47;;;;;;;9.72;72.20;100757.28;6136223;23;20026;-71
2023/12/23 07:14:04;;;;;;;14.65;2.75;;;;;;;9.76;71.78;100744.25;6136630;23;20456;-71
2023/12/23 07:16:33;;;;;;;17.52;3.38;;;;;;;9.75;71.71;100737.22;6136416;23;20081;-67
2023/12/23 07:19:01;;;;;;;19.02;3.83;;;;;;;9.78;71.97;100736.78;6137542;23;20033;-67
2023/12/23 07:21:28;;;;;;;12.40;3.20;;;;;;;9.75;71.93;100726.50;6134378;23;20029;-67
2023/12/23 07:23:56;;;;;;;13.48;2.53;;;;;;;9.74;71.97;100735.59;6134882;23;20029;-75
2023/12/23 07:26:24;;;;;;;12.60;2.25;;;;;;;9.74;72.05;100760.56;6135145;23;20432;-76
2023/12/23 07:28:53;;;;;;;8.10;2.85;;;;;;;9.81;71.96;100757.00;6135265;23;20219;-73
2023/12/23 07:31:21;;;;;;;13.65;2.83;;;;;;;9.75;71.86;100751.47;6135090;23;20108;-72
2023/12/23 07:33:50;;;;;;;11.10;2.42;;;;;;;9.78;71.91;100758.25;6136541;23;20025;-74
2023/12/23 07:36:18;;;;;;;10.40;2.95;;;;;;;9.75;72.00;100772.13;6136884;23;20036;-71
2023/12/23 07:38:46;;;;;;;14.90;3.45;;;;;;;9.77;71.94;100765.50;6137287;23;20081;-70
2023/12/23 07:41:14;;;;;;;10.77;2.70;;;;;;;9.75;72.29;100788.22;6135875;23;20026;-69
2023/12/23 07:43:42;;;;;;;13.20;2.47;;;;;;;9.74;72.05;100776.66;6136211;23;20078;-71
2023/12/23 07:46:09;;;;;;;12.15;3.40;;;;;;;9.77;71.99;100776.22;6134440;23;20033;-72
2023/12/23 07:48:37;;;;;;;14.50;2.47;;;;;;;9.66;72.06;100762.69;6137453;23;20029;-73
2023/12/23 07:51:08;;;;;;;12.85;3.03;;;;;;;9.76;71.86;100792.56;6136088;23;20049;-71
2023/12/23 07:53:36;;;;;;;11.85;2.90;;;;;;;9.77;71.69;100772.72;6135548;23;20026;-70
2023/12/23 07:56:06;;;;;;;11.65;2.90;;;;;;;9.80;71.88;100774.97;6135148;23;20053;-67
2023/12/23 07:58:34;;;;;;;9.27;2.58;;;;;;;9.79;72.04;100760.72;6135133;23;20022;-70
2023/12/23 08:01:02;;;;;;;13.55;2.42;;;;;;;9.90;71.74;100772.63;6135657;23;20049;-70
2023/12/23 08:03:30;;;;;;;16.77;2.33;;;;;;;9.87;71.82;100764.19;6136096;23;20026;-69
2023/12/23 08:05:58;;;;;;;14.50;3.22;;;;;;;9.87;71.47;100761.50;6135770;23;20105;-66
2023/12/23 08:08:27;;;;;;;9.05;2.13;;;;;;;9.97;71.35;100770.69;6136413;23;20029;-69
2023/12/23 08:10:57;;;;;;;13.95;2.83;;;;;;;10.09;70.86;100766.25;6135421;23;20037;-70
2023/12/23 08:13:25;;;;;;;15.35;2.53;;;;;;;10.25;70.43;100769.44;6135515;23;20053;-69
2023/12/23 08:15:52;;;;;;;9.73;2.92;;;;;;;10.41;69.42;100790.34;6136622;23;20021;-69
2023/12/23 08:18:20;;;;;;;9.38;2.25;;;;;;;10.69;68.77;100781.78;6136859;23;20108;-71
2023/12/23 08:20:49;;;;;;;12.30;2.60;;;;;;;10.79;68.51;100781.25;6136600;23;20057;-70
2023/12/23 08:23:16;;;;;;;10.50;2.45;;;;;;;10.86;67.88;100774.75;6136608;23;20025;-70
2023/12/23 08:25:47;;;;;;;15.23;2.97;;;;;;;10.81;67.93;100779.16;6137441;23;20036;-67
2023/12/23 08:28:15;;;;;;;14.27;2.88;;;;;;;10.71;68.11;100780.50;6137237;23;20089;-71
2023/12/23 08:30:43;;;;;;;13.05;2.60;;;;;;;10.61;68.52;100782.88;6134269;23;20122;-71
2023/12/23 08:33:11;;;;;;;5.40;1.95;;;;;;;10.51;68.59;100773.69;6133876;23;20081;-72
2023/12/23 08:35:39;;;;;;;10.88;2.55;;;;;;;10.46;68.76;100785.13;6136354;23;20471;-72
2023/12/23 08:38:09;;;;;;;6.47;1.77;;;;;;;10.38;69.41;100788.94;6136757;23;20459;-75
2023/12/23 08:40:37;;;;;;;11.90;2.30;;;;;;;10.32;69.58;100778.28;6135501;23;20026;-74
2023/12/23 08:43:06;;;;;;;9.35;2.85;;;;;;;10.30;69.68;100781.19;6136736;23;20065;-73
2023/12/23 08:45:34;;;;;;;14.20;2.60;;;;;;;10.23;69.44;100785.78;6136549;23;20025;-74
2023/12/23 08:48:02;;;;;;;9.38;2.35;;;;;;;10.18;69.67;100782.91;6137379;23;20131;-76
2023/12/23 08:50:30;;;;;;;15.10;3.85;;;;;;;10.20;69.96;100785.41;6135867;23;20026;-72
2023/12/23 08:52:57;;;;;;;7.35;2.50;;;;;;;10.19;70.20;100775.69;6135912;23;20022;-68
2023/12/23 08:55:25;;;;;;;10.50;2.10;;;;;;;10.14;70.15;100786.25;6134263;23;20045;-70
2023/12/23 08:57:53;;;;;;;22.90;2.88;;;;;;;10.14;70.49;100783.56;6135785;23;20026;-70
2023/12/23 09:00:22;;;;;;;12.02;1.85;;;;;;;10.16;70.34;100805.66;6134755;23;20056;-70
2023/12/23 09:02:50;;;;;;;8.00;1.70;;;;;;;10.21;69.96;100787.88;6135543;23;20037;-71
2023/12/23 09:05:18;;;;;;;10.80;2.25;;;;;;;10.17;70.26;100810.81;6135633;23;20030;-70
2023/12/23 09:07:46;;;;;;;6.70;1.67;;;;;;;10.18;70.38;100809.75;6135895;23;20022;-71
2023/12/23 09:10:14;;;;;;;5.88;1.65;;;;;;;10.19;70.39;100805.22;6135827;23;20104;-70
2023/12/23 09:12:42;;;;;;;7.10;2.30;;;;;;;10.10;70.64;100826.97;6135855;23;20475;-70
2023/12/23 09:15:10;;;;;;;9.50;1.80;;;;;;;10.14;70.84;100815.78;6136145;23;20097;-69
2023/12/23 09:17:39;;;;;;;11.57;1.80;;;;;;;10.13;71.04;100812.28;6134958;23;20030;-69
2023/12/23 09:20:10;;;;;;;7.43;1.65;;;;;;;10.12;71.25;100818.69;6134905;23;20104;-69
2023/12/23 09:22:38;;;;;;;7.55;1.55;;;;;;;10.13;71.25;100825.72;6135445;23;20036;-72
2023/12/23 09:25:06;;;;;;;4.40;1.55;;;;;;;10.10;71.08;100824.28;6134511;23;20076;-71
2023/12/23 09:27:34;;;;;;;9.80;1.90;;;;;;;10.11;71.31;100815.19;6134483;23;20022;-69
2023/12/23 09:30:02;;;;;;;7.72;2.50;;;;;;;10.17;70.96;100815.34;6134661;23;20026;-71
2023/12/23 09:32:29;;;;;;;9.10;1.80;;;;;;;10.17;71.21;100823.41;6134922;23;20304;-71
2023/12/23 09:34:59;;;;;;;8.65;1.58;;;;;;;10.15;71.44;100817.44;6133642;23;20033;-69
2023/12/23 09:37:31;;;;;;;11.38;2.50;;;;;;;10.15;71.61;100822.81;6135325;23;20022;-68
2023/12/23 09:40:01;;;;;;;10.60;1.50;;;;;;;10.23;71.10;100812.66;6135450;23;20061;-71
2023/12/23 09:42:29;;;;;;;5.07;1.77;;;;;;;10.24;71.17;100811.59;6135408;23;20026;-70
2023/12/23 09:44:57;;;;;;;9.25;3.10;;;;;;;10.18;71.18;100812.44;6136152;23;20076;-68
2023/12/23 09:47:25;;;;;;;7.03;2.47;;;;;;;10.11;71.05;100812.50;6135640;23;20022;-71
2023/12/23 09:49:53;;;;;;;8.73;2.10;;;;;;;10.19;71.03;100835.59;6135462;23;20044;-71
2023/12/23 09:52:23;;;;;;;9.25;1.92;;;;;;;10.21;70.79;100851.50;6135066;23;20157;-71
2023/12/23 09:54:54;;;;;;;10.98;2.00;;;;;;;10.24;70.88;100840.31;6134960;23;20057;-72
2023/12/23 09:57:22;;;;;;;4.72;1.42;;;;;;;10.35;70.60;100847.66;6133402;23;20045;-69
2023/12/23 09:59:51;;;;;;;6.68;1.65;;;;;;;10.33;70.29;100844.38;6133983;23;20037;-70
2023/12/23 10:02:19;;;;;;;7.38;2.67;;;;;;;10.22;70.20;100827.13;6134703;23;20534;-68
2023/12/23 10:04:47;;;;;;;12.98;2.00;;;;;;;10.22;70.39;100843.22;6134780;23;20061;-72
2023/12/23 10:07:15;;;;;;;13.43;2.10;;;;;;;10.22;70.47;100861.22;6135860;23;20025;-70
2023/12/23 10:09:48;;;;;;;6.13;1.67;;;;;;;10.21;70.51;100854.19;6135451;23;20125;-71
2023/12/23 10:12:16;;;;;;;8.70;2.85;;;;;;;10.21;70.49;100848.81;6135160;23;20022;-71
2023/12/23 10:14:44;;;;;;;9.65;1.83;;;;;;;10.21;70.46;100863.06;6135891;23;20030;-73
2023/12/23 10:17:12;;;;;;;9.30;1.88;;;;;;;10.21;70.68;100859.56;6134888;23;20021;-71
2023/12/23 10:19:40;;;;;;;7.40;1.85;;;;;;;10.19;70.83;100862.44;6136259;23;20026;-71
2023/12/23 10:22:07;;;;;;;5.80;1.90;;;;;;;10.17;70.46;100853.78;6137799;23;20026;-70
2023/12/23 10:24:38;;;;;;;6.88;2.00;;;;;;;10.18;70.87;100842.00;6136025;23;20026;-71
2023/12/23 10:27:07;;;;;;;8.55;1.90;;;;;;;10.19;70.56;100842.81;6134894;23;20022;-71
2023/12/23 10:29:35;;;;;;;12.70;1.90;;;;;;;10.18;70.54;100833.94;6134678;23;20030;-66
2023/12/23 10:32:04;;;;;;;6.22;1.70;;;;;;;10.18;70.42;100842.00;6137167;23;20030;-66
2023/12/23 10:34:42;;;;;;;6.18;2.05;;;;;;;10.20;70.16;100817.63;6137771;23;20026;-65
2023/12/23 10:37:10;;;;;;;10.73;2.45;;;;;;;10.18;70.20;100823.19;6137711;23;20077;-66
2023/12/23 10:39:46;;;;;;;14.82;1.73;;;;;;;10.28;70.02;100838.84;6137138;23;20057;-65
2023/12/23 10:42:20;;;;;;;10.20;1.90;;;;;;;10.27;69.91;100826.47;6136818;23;20021;-68
2023/12/23 10:44:48;;;;;;;5.93;1.52;;;;;;;10.29;70.03;100835.94;6137999;23;20021;-64
2023/12/23 10:47:16;;;;;;;6.75;1.55;;;;;;;10.29;69.92;100830.56;6135624;23;20188;-67
2023/12/23 10:49:47;;;;;;;11.48;2.50;;;;;;;10.27;70.12;100848.75;6136678;23;20077;-68
2023/12/23 10:52:17;;;;;;;6.97;2.00;;;;;;;10.26;69.96;100857.88;6135962;23;20074;-66
2023/12/23 10:54:46;;;;;;;9.23;2.22;;;;;;;10.21;69.80;100838.91;6135978;23;20334;-66
2023/12/23 10:57:16;;;;;;;9.88;2.55;;;;;;;10.19;69.76;100846.31;6135328;23;20022;-66
2023/12/23 10:59:44;;;;;;;10.10;2.10;;;;;;;10.26;70.14;100831.00;6135087;23;20198;-65
2023/12/23 11:02:14;;;;;;;7.38;2.10;;;;;;;10.26;69.79;100820.25;6136991;23;20033;-65
2023/12/23 11:04:45;;;;;;;12.38;2.25;;;;;;;10.28;69.75;100831.59;6136667;23;20033;-66
2023/12/23 11:07:15;;;;;;;14.63;2.90;;;;;;;10.22;69.83;100847.78;6137679;23;20025;-68
2023/12/23 11:09:46;;;;;;;5.78;1.35;;;;;;;10.26;69.71;100825.63;6137123;23;20049;-66
2023/12/23 11:12:17;;;;;;;7.88;1.73;;;;;;;10.27;69.74;100826.47;6136512;23;20534;-67
2023/12/23 11:14:46;;;;;;;8.48;1.65;;;;;;;10.39;69.57;100830.06;6137356;23;20030;-67
2023/12/23 11:17:25;;;;;;;10.60;1.92;;;;;;;10.31;69.66;100836.53;6137520;23;20053;-67
2023/12/23 11:19:56;;;;;;;11.02;1.80;;;;;;;10.21;69.52;100824.66;6136614;23;20456;-66
2023/12/23 11:22:25;;;;;;;9.40;1.70;;;;;;;10.27;69.63;100834.50;6136941;23;20424;-66
2023/12/23 11:24:53;;;;;;;13.82;2.28;;;;;;;10.25;69.85;100831.22;6137034;23;20032;-66
2023/12/23 11:27:33;;;;;;;8.07;2.67;;;;;;;10.21;69.64;100830.03;6137274;23;20079;-69
2023/12/23 11:30:03;;;;;;;7.38;2.03;;;;;;;10.24;69.83;100849.22;6136987;23;20326;-65
2023/12/23 11:32:36;;;;;;;10.02;1.98;;;;;;;10.24;69.86;100843.00;6138347;23;20092;-65